Time;durP1;ratioP1;P1;durP2;ratioP2;P2;SDS_P1;SDS_P2;PMS_P1;PMS_P2;Temp;Humidity;BMP_temperature;BMP_pressure;BME280_temperature;BME280_humidity;BME280_pressure;Samples;Min_cycle;Max_cycle;Signal;HPM_P1;HPM_P2
2023/01/09 00:00:03;;;;;;;12.57;10.03;;;6.60;99.90;;;;;;5057364;28;20465;-69
2023/01/09 00:02:29;;;;;;;13.60;10.07;;;6.60;99.90;;;;;;5058387;28;20505;-68
2023/01/09 00:04:58;;;;;;;11.93;9.20;;;6.60;99.90;;;;;;5056762;28;20550;-68
2023/01/09 00:07:25;;;;;;;12.77;9.77;;;6.50;99.90;;;;;;5056630;28;20619;-69
2023/01/09 00:09:54;;;;;;;11.70;9.30;;;6.50;99.90;;;;;;5057002;28;20455;-69
2023/01/09 00:12:21;;;;;;;14.13;10.93;;;6.50;99.90;;;;;;5056862;28;20742;-68
2023/01/09 00:14:48;;;;;;;15.67;9.80;;;6.50;99.90;;;;;;5058148;28;20546;-67
2023/01/09 00:17:16;;;;;;;12.70;9.57;;;6.50;99.90;;;;;;5057028;28;20475;-70
2023/01/09 00:19:44;;;;;;;13.17;10.37;;;6.50;99.90;;;;;;5057124;28;20505;-70
2023/01/09 00:22:10;;;;;;;14.93;11.67;;;6.50;99.90;;;;;;5056948;28;20517;-68
2023/01/09 00:24:38;;;;;;;14.97;11.57;;;6.50;99.90;;;;;;5056881;28;20530;-69
2023/01/09 00:27:05;;;;;;;13.67;10.50;;;6.50;99.90;;;;;;5057116;28;20456;-71
2023/01/09 00:29:32;;;;;;;15.43;11.33;;;6.50;99.90;;;;;;5058106;28;20466;-70
2023/01/09 00:31:59;;;;;;;14.00;10.67;;;6.40;99.90;;;;;;5057376;28;20520;-68
2023/01/09 00:34:28;;;;;;;13.23;10.70;;;6.40;99.90;;;;;;5057345;28;20455;-69
2023/01/09 00:36:55;;;;;;;15.47;11.27;;;6.40;99.90;;;;;;5056866;28;21002;-69
2023/01/09 00:39:23;;;;;;;13.10;11.07;;;6.40;99.90;;;;;;5056724;28;20455;-68
2023/01/09 00:41:54;;;;;;;15.40;11.93;;;6.30;99.90;;;;;;5056782;28;20487;-69
2023/01/09 00:44:26;;;;;;;13.97;11.40;;;6.30;99.90;;;;;;5057334;28;20440;-69
2023/01/09 00:46:57;;;;;;;15.47;11.40;;;6.30;99.90;;;;;;5057739;28;20441;-70
2023/01/09 00:49:25;;;;;;;13.90;10.20;;;6.30;99.90;;;;;;5058293;28;20534;-69
2023/01/09 00:51:54;;;;;;;14.80;11.50;;;6.30;99.90;;;;;;5059129;28;20991;-70
2023/01/09 00:54:22;;;;;;;16.00;11.67;;;6.20;99.90;;;;;;5059455;28;20547;-70
2023/01/09 00:56:50;;;;;;;17.00;12.63;;;6.20;99.90;;;;;;5060183;28;20530;-70
2023/01/09 00:59:17;;;;;;;15.30;11.67;;;6.20;99.90;;;;;;5061880;28;20502;-68
2023/01/09 01:01:44;;;;;;;15.73;11.37;;;6.10;99.90;;;;;;5062212;28;20491;-68
2023/01/09 01:09:41;;;;;;;12.70;10.07;;;6.10;99.90;;;;;;5058659;28;20765;-68
2023/01/09 01:12:08;;;;;;;14.43;11.27;;;6.10;99.90;;;;;;5058460;28;20505;-68
2023/01/09 01:14:36;;;;;;;17.73;11.93;;;6.10;99.90;;;;;;5058495;28;20853;-69
2023/01/09 01:17:03;;;;;;;14.87;11.40;;;6.10;99.90;;;;;;5057578;28;20542;-68
2023/01/09 01:19:30;;;;;;;14.33;11.00;;;6.10;99.90;;;;;;5056831;28;20569;-69
2023/01/09 01:21:58;;;;;;;16.93;12.70;;;6.10;99.90;;;;;;5055511;28;20475;-68
2023/01/09 01:24:25;;;;;;;14.60;11.13;;;6.10;99.90;;;;;;5055771;28;20459;-69
2023/01/09 01:26:52;;;;;;;14.70;12.10;;;6.10;99.90;;;;;;5056356;28;20502;-69
2023/01/09 01:29:19;;;;;;;17.93;12.90;;;6.10;99.90;;;;;;5056308;28;20536;-69
2023/01/09 01:31:46;;;;;;;14.97;11.60;;;6.00;99.90;;;;;;5055875;28;20459;-68
2023/01/09 01:34:12;;;;;;;18.87;13.10;;;6.10;99.90;;;;;;5056028;28;20455;-69
2023/01/09 01:36:39;;;;;;;15.70;11.93;;;6.10;99.90;;;;;;5058411;28;20483;-69
2023/01/09 01:39:07;;;;;;;14.80;11.63;;;6.10;99.90;;;;;;5058911;28;20574;-69
2023/01/09 01:41:34;;;;;;;16.90;12.60;;;6.10;99.90;;;;;;5059239;28;20490;-69
2023/01/09 01:44:03;;;;;;;14.87;11.03;;;6.00;99.90;;;;;;5056274;28;20534;-69
2023/01/09 01:46:32;;;;;;;15.30;11.90;;;6.00;99.90;;;;;;5055615;28;20926;-68
2023/01/09 01:49:03;;;;;;;17.23;12.30;;;6.00;99.90;;;;;;5055380;28;20557;-69
2023/01/09 01:51:39;;;;;;;14.40;11.30;;;6.00;99.90;;;;;;5055891;28;20439;-67
2023/01/09 01:54:10;;;;;;;14.93;11.70;;;6.00;99.90;;;;;;5056427;28;20443;-67
2023/01/09 01:56:40;;;;;;;16.47;11.73;;;6.00;99.90;;;;;;5059716;28;20530;-67
2023/01/09 01:59:11;;;;;;;15.43;12.10;;;6.00;99.90;;;;;;5058885;28;20489;-68
2023/01/09 02:01:42;;;;;;;14.43;11.50;;;6.10;99.90;;;;;;5060593;28;20507;-69
2023/01/09 02:04:10;;;;;;;16.40;13.40;;;6.10;99.90;;;;;;5061049;28;20542;-69
2023/01/09 02:06:38;;;;;;;15.70;12.37;;;6.10;99.90;;;;;;5060877;28;20599;-68
2023/01/09 02:09:07;;;;;;;17.43;14.03;;;6.10;99.90;;;;;;5059882;28;20455;-69
2023/01/09 02:11:34;;;;;;;16.27;12.47;;;6.10;99.90;;;;;;5059528;28;20455;-68
2023/01/09 02:14:02;;;;;;;15.80;12.67;;;6.10;99.90;;;;;;5059405;28;20459;-68
2023/01/09 02:16:41;;;;;;;17.67;13.43;;;6.10;99.90;;;;;;5059153;28;20459;-68
2023/01/09 02:19:34;;;;;;;14.70;12.20;;;6.10;97.50;;;;;;5058720;28;20471;-68
2023/01/09 02:22:11;;;;;;;15.47;12.40;;;6.00;99.90;;;;;;5059002;28;20632;-68
2023/01/09 02:25:08;;;;;;;16.10;13.10;;;6.00;98.70;;;;;;5059992;28;20443;-68
2023/01/09 02:28:04;;;;;;;19.40;13.80;;;6.00;99.90;;;;;;5060259;28;20439;-68
2023/01/09 02:30:38;;;;;;;18.27;12.77;;;6.00;99.90;;;;;;5059853;28;20444;-69
2023/01/09 02:33:29;;;;;;;16.10;12.30;;;6.00;99.90;;;;;;5059161;28;20593;-69
2023/01/09 02:36:10;;;;;;;17.33;13.63;;;6.00;99.90;;;;;;5059752;28;20453;-69
2023/01/09 02:38:47;;;;;;;17.87;13.17;;;6.00;99.90;;;;;;5058053;28;20463;-68
2023/01/09 02:41:18;;;;;;;17.57;13.90;;;5.90;99.90;;;;;;5058445;28;20515;-69
2023/01/09 02:43:45;;;;;;;16.80;13.20;;;5.90;99.90;;;;;;5058184;28;20503;-69
2023/01/09 02:46:19;;;;;;;20.17;13.70;;;5.90;99.90;;;;;;5058448;28;20455;-69
2023/01/09 02:48:49;;;;;;;18.80;14.23;;;5.80;99.90;;;;;;5058087;28;20450;-68
2023/01/09 02:51:26;;;;;;;21.53;14.93;;;5.80;99.90;;;;;;5058152;28;20520;-68
2023/01/09 02:54:11;;;;;;;20.50;14.20;;;5.80;99.90;;;;;;5057904;28;20475;-68
2023/01/09 02:56:55;;;;;;;17.90;14.00;;;5.80;99.90;;;;;;5057829;28;20518;-68
2023/01/09 02:59:26;;;;;;;19.70;14.07;;;5.70;99.90;;;;;;5057736;28;20460;-68
2023/01/09 03:02:08;;;;;;;17.33;14.23;;;5.80;99.90;;;;;;5057971;28;20443;-68
2023/01/09 03:04:46;;;;;;;18.53;13.80;;;5.80;99.90;;;;;;5057445;28;20523;-68
2023/01/09 03:07:21;;;;;;;20.30;13.60;;;5.70;99.90;;;;;;5057678;28;20443;-68
2023/01/09 03:09:51;;;;;;;22.43;14.50;;;5.70;99.90;;;;;;5057580;28;20453;-68
2023/01/09 03:12:23;;;;;;;19.00;14.87;;;5.70;99.90;;;;;;5057321;28;20475;-69
2023/01/09 03:14:53;;;;;;;18.07;13.77;;;5.70;99.90;;;;;;5057293;28;20535;-67
2023/01/09 03:17:27;;;;;;;19.67;14.60;;;5.60;99.90;;;;;;5057521;28;20443;-69
2023/01/09 03:19:56;;;;;;;19.00;13.80;;;5.60;99.90;;;;;;5057419;28;20467;-69
2023/01/09 03:22:23;;;;;;;18.07;13.67;;;5.60;99.90;;;;;;5057243;28;20479;-67
2023/01/09 03:24:50;;;;;;;22.37;15.50;;;5.60;99.90;;;;;;5057700;28;20498;-68
2023/01/09 03:27:17;;;;;;;21.20;15.60;;;5.60;99.90;;;;;;5057080;28;20459;-68
2023/01/09 03:29:44;;;;;;;20.20;15.17;;;5.70;99.90;;;;;;5057641;28;20618;-68
2023/01/09 03:32:10;;;;;;;17.23;13.70;;;5.70;99.90;;;;;;5059413;28;20455;-69
2023/01/09 03:34:39;;;;;;;21.00;14.50;;;5.70;99.90;;;;;;5059402;28;20903;-68
2023/01/09 03:37:06;;;;;;;20.67;15.87;;;5.70;99.90;;;;;;5059455;28;20524;-68
2023/01/09 03:39:33;;;;;;;18.70;12.57;;;5.80;99.90;;;;;;5059875;28;20501;-68
2023/01/09 03:42:00;;;;;;;18.83;13.87;;;5.80;99.90;;;;;;5056920;28;20455;-68
2023/01/09 03:44:26;;;;;;;17.23;13.30;;;5.80;99.90;;;;;;5056919;28;20455;-68
2023/01/09 03:46:53;;;;;;;19.63;15.00;;;5.90;99.90;;;;;;5057477;28;20465;-69
2023/01/09 03:49:20;;;;;;;18.80;14.23;;;5.90;99.90;;;;;;5056329;28;20456;-67
2023/01/09 03:51:48;;;;;;;15.57;12.70;;;5.90;99.90;;;;;;5057067;28;20466;-67
2023/01/09 03:54:15;;;;;;;16.50;13.60;;;6.00;99.90;;;;;;5057594;28;20451;-69
2023/01/09 03:56:42;;;;;;;18.43;13.70;;;6.00;99.90;;;;;;5057448;28;20871;-67
2023/01/09 03:59:09;;;;;;;18.10;13.80;;;6.10;56.50;;;;;;5057702;28;20483;-68
2023/01/09 04:01:36;;;;;;;18.80;14.13;;;6.10;19.10;;;;;;5057492;28;20545;-68
2023/01/09 04:04:03;;;;;;;17.90;13.10;;;6.20;32.60;;;;;;5057859;28;20465;-69
2023/01/09 04:06:29;;;;;;;21.63;14.10;;;6.20;1.00;;;;;;5056802;28;20775;-69
2023/01/09 04:08:58;;;;;;;18.17;14.47;;;6.20;86.20;;;;;;5056283;28;20461;-69
2023/01/09 04:11:24;;;;;;;17.40;13.77;;;6.20;9.10;;;;;;5055920;28;20910;-69
2023/01/09 04:13:51;;;;;;;17.17;13.73;;;6.20;1.00;;;;;;5056416;28;20511;-69
2023/01/09 04:16:18;;;;;;;20.23;14.67;;;6.30;36.70;;;;;;5056218;28;20455;-68
2023/01/09 04:18:45;;;;;;;19.00;13.33;;;6.20;94.10;;;;;;5056171;28;20471;-68
2023/01/09 04:21:12;;;;;;;17.23;12.70;;;6.30;99.90;;;;;;5056872;28;20463;-68
2023/01/09 04:23:39;;;;;;;19.40;14.10;;;6.30;99.90;;;;;;5056709;28;20809;-68
2023/01/09 04:26:07;;;;;;;16.80;13.60;;;6.40;99.90;;;;;;5057211;28;20485;-68
2023/01/09 04:28:34;;;;;;;17.47;13.20;;;6.40;99.90;;;;;;5056246;28;20455;-68
2023/01/09 04:31:01;;;;;;;17.20;13.17;;;6.40;99.90;;;;;;5056059;28;20455;-69
2023/01/09 04:33:28;;;;;;;19.50;13.43;;;6.40;99.90;;;;;;5057213;28;20470;-69
2023/01/09 04:35:55;;;;;;;18.03;12.77;;;6.40;99.90;;;;;;5056788;28;20936;-69
2023/01/09 04:38:22;;;;;;;18.20;14.17;;;6.50;99.90;;;;;;5055631;28;20483;-68
2023/01/09 04:40:49;;;;;;;16.97;13.60;;;6.50;99.90;;;;;;5056274;28;20455;-69
2023/01/09 04:43:17;;;;;;;15.57;13.17;;;6.50;99.90;;;;;;5056841;28;20787;-71
2023/01/09 04:45:44;;;;;;;19.07;13.50;;;6.60;99.90;;;;;;5056681;28;20459;-69
2023/01/09 04:48:11;;;;;;;17.60;12.60;;;6.60;99.90;;;;;;5056818;28;20601;-70
2023/01/09 04:50:38;;;;;;;17.47;13.20;;;6.70;99.90;;;;;;5056554;28;20450;-70
2023/01/09 04:53:05;;;;;;;19.20;14.77;;;6.70;99.90;;;;;;5056307;28;20459;-69
2023/01/09 04:55:32;;;;;;;19.80;14.80;;;6.70;99.90;;;;;;5056479;28;20827;-69
2023/01/09 04:57:59;;;;;;;16.67;13.27;;;6.70;99.90;;;;;;5056600;28;20454;-69
2023/01/09 05:00:27;;;;;;;20.47;14.30;;;6.70;99.90;;;;;;5056202;28;20485;-70
2023/01/09 05:02:55;;;;;;;20.77;15.27;;;6.60;99.90;;;;;;5056487;28;20459;-68
2023/01/09 05:05:22;;;;;;;17.93;13.70;;;6.60;99.90;;;;;;5056150;28;20477;-71
2023/01/09 05:07:49;;;;;;;20.50;15.27;;;6.50;99.90;;;;;;5056140;28;20545;-68
2023/01/09 05:10:16;;;;;;;19.20;14.40;;;6.50;99.90;;;;;;5056271;28;20483;-69
2023/01/09 05:12:43;;;;;;;20.20;14.17;;;6.40;99.90;;;;;;5056337;28;20759;-67
2023/01/09 05:15:11;;;;;;;19.97;13.90;;;6.40;99.90;;;;;;5056213;28;20903;-69
2023/01/09 05:17:39;;;;;;;17.33;13.50;;;6.40;99.90;;;;;;5055960;28;20530;-70
2023/01/09 05:20:07;;;;;;;20.07;15.67;;;6.40;99.90;;;;;;5055954;28;20487;-69
2023/01/09 05:22:33;;;;;;;17.87;13.60;;;6.40;99.90;;;;;;5056437;28;20479;-69
2023/01/09 05:25:00;;;;;;;15.77;13.73;;;6.40;99.90;;;;;;5056213;28;20509;-69
2023/01/09 05:27:29;;;;;;;17.70;13.40;;;6.50;99.90;;;;;;5057847;28;20451;-69
2023/01/09 05:29:55;;;;;;;17.40;13.73;;;6.50;99.90;;;;;;5061490;28;20451;-69
2023/01/09 05:32:22;;;;;;;17.00;12.73;;;6.50;99.90;;;;;;5063519;28;20865;-68
2023/01/09 05:34:50;;;;;;;19.93;13.30;;;6.60;99.90;;;;;;5061914;28;20546;-69
2023/01/09 05:37:17;;;;;;;17.37;13.90;;;6.60;99.90;;;;;;5061254;28;20518;-69
2023/01/09 05:39:44;;;;;;;19.13;14.00;;;6.60;99.90;;;;;;5059842;28;20566;-68
2023/01/09 05:42:11;;;;;;;18.30;13.13;;;6.60;99.90;;;;;;5059306;28;20541;-72
2023/01/09 05:44:38;;;;;;;21.30;14.10;;;6.50;99.90;;;;;;5059702;28;20465;-69
2023/01/09 05:47:05;;;;;;;17.17;13.43;;;6.50;99.90;;;;;;5059334;28;20455;-68
2023/01/09 05:49:31;;;;;;;17.80;14.10;;;6.50;99.90;;;;;;5059361;28;20450;-68
2023/01/09 05:52:00;;;;;;;17.80;14.27;;;6.50;99.90;;;;;;5059735;28;20464;-68
2023/01/09 05:54:26;;;;;;;21.60;15.87;;;6.50;99.90;;;;;;5059156;28;20465;-69
2023/01/09 05:56:53;;;;;;;20.70;14.90;;;6.50;99.90;;;;;;5062299;28;20469;-69
2023/01/09 05:59:20;;;;;;;18.90;14.80;;;6.50;99.90;;;;;;5061113;28;21057;-69
2023/01/09 06:01:47;;;;;;;20.30;14.07;;;6.50;99.90;;;;;;5062687;28;20550;-69
2023/01/09 06:04:14;;;;;;;21.97;13.70;;;6.50;99.90;;;;;;5060522;28;20470;-67
2023/01/09 06:06:41;;;;;;;20.80;15.00;;;6.50;99.90;;;;;;5059344;28;20459;-69
2023/01/09 06:09:09;;;;;;;21.17;14.80;;;6.40;99.90;;;;;;5058356;28;20451;-69
2023/01/09 06:11:37;;;;;;;18.17;14.97;;;6.40;99.90;;;;;;5058272;28;20479;-69
2023/01/09 06:14:04;;;;;;;21.20;15.10;;;6.40;99.90;;;;;;5058398;28;20485;-69
2023/01/09 06:16:31;;;;;;;22.40;16.07;;;6.40;99.90;;;;;;5059530;28;20451;-68
2023/01/09 06:18:58;;;;;;;21.20;15.57;;;6.40;99.90;;;;;;5058732;28;20479;-70
2023/01/09 06:21:25;;;;;;;20.17;14.23;;;6.40;99.90;;;;;;5059121;28;20491;-69
2023/01/09 06:23:52;;;;;;;25.07;18.03;;;6.40;99.90;;;;;;5059582;28;20440;-68
2023/01/09 06:26:20;;;;;;;24.80;16.07;;;6.40;99.90;;;;;;5058992;28;20465;-69
2023/01/09 06:28:47;;;;;;;19.37;15.07;;;6.40;99.90;;;;;;5059410;28;20447;-69
2023/01/09 06:31:13;;;;;;;21.93;15.50;;;6.40;99.90;;;;;;5060157;28;20846;-69
2023/01/09 06:33:40;;;;;;;21.80;14.90;;;6.40;99.90;;;;;;5061065;28;20459;-69
2023/01/09 06:36:08;;;;;;;18.83;14.13;;;6.40;99.90;;;;;;5060099;28;20772;-68
2023/01/09 06:38:35;;;;;;;21.77;15.33;;;6.40;99.90;;;;;;5059105;28;20528;-71
2023/01/09 06:41:02;;;;;;;22.87;17.00;;;6.40;99.90;;;;;;5058767;28;20822;-68
2023/01/09 06:43:30;;;;;;;21.20;15.07;;;6.40;99.90;;;;;;5058093;28;20550;-67
2023/01/09 06:45:57;;;;;;;24.53;15.53;;;6.50;99.90;;;;;;5057439;28;20455;-69
2023/01/09 06:48:24;;;;;;;22.97;16.23;;;6.40;99.90;;;;;;5058085;28;20455;-68
2023/01/09 06:50:51;;;;;;;22.43;15.83;;;6.50;99.90;;;;;;5057322;28;20451;-68
2023/01/09 06:53:18;;;;;;;19.13;14.43;;;6.40;99.90;;;;;;5057733;28;20459;-69
2023/01/09 06:55:45;;;;;;;25.10;16.40;;;6.40;99.90;;;;;;5057547;28;20554;-70
2023/01/09 06:58:13;;;;;;;21.87;15.80;;;6.50;99.90;;;;;;5057282;28;20959;-68
2023/01/09 07:00:41;;;;;;;20.00;14.93;;;6.50;99.90;;;;;;5057899;28;20479;-69
2023/01/09 07:03:08;;;;;;;22.10;16.73;;;6.50;99.90;;;;;;5058044;28;20459;-69
2023/01/09 07:05:40;;;;;;;25.60;16.97;;;6.50;99.90;;;;;;5057153;28;20454;-69
2023/01/09 07:08:07;;;;;;;24.53;15.93;;;6.50;99.90;;;;;;5057793;28;20454;-67
2023/01/09 07:10:34;;;;;;;20.07;14.57;;;6.50;99.90;;;;;;5059086;28;20482;-68
2023/01/09 07:13:01;;;;;;;23.33;16.90;;;6.50;99.90;;;;;;5057349;28;20459;-67
2023/01/09 07:15:28;;;;;;;26.73;17.37;;;6.50;99.90;;;;;;5058006;28;20942;-69
2023/01/09 07:17:56;;;;;;;23.37;16.20;;;6.50;99.90;;;;;;5058261;28;20501;-69
2023/01/09 07:20:23;;;;;;;21.90;15.77;;;6.50;99.90;;;;;;5058623;28;20530;-68
2023/01/09 07:22:50;;;;;;;26.00;17.33;;;6.50;99.90;;;;;;5058681;28;20497;-69
2023/01/09 07:25:17;;;;;;;24.77;17.30;;;6.50;99.90;;;;;;5058748;28;20482;-68
2023/01/09 07:27:44;;;;;;;22.63;17.30;;;6.50;99.90;;;;;;5058585;28;20986;-68
2023/01/09 07:30:12;;;;;;;21.50;15.73;;;6.60;99.90;;;;;;5059036;28;20839;-68
2023/01/09 07:32:39;;;;;;;26.40;17.27;;;6.60;99.90;;;;;;5058924;28;20465;-68
2023/01/09 07:35:09;;;;;;;21.77;16.37;;;6.60;99.90;;;;;;5059070;28;20907;-68
2023/01/09 07:37:36;;;;;;;23.00;16.20;;;6.50;99.90;;;;;;5058789;28;20458;-69
2023/01/09 07:40:04;;;;;;;24.40;17.00;;;6.50;99.90;;;;;;5059233;28;20483;-68
2023/01/09 07:42:31;;;;;;;23.20;16.13;;;6.50;99.90;;;;;;5059164;28;20455;-69
2023/01/09 07:44:58;;;;;;;21.50;15.47;;;6.50;99.90;;;;;;5059301;28;20487;-69
2023/01/09 07:47:25;;;;;;;23.90;15.50;;;6.50;99.90;;;;;;5057460;28;20777;-69
2023/01/09 07:49:51;;;;;;;24.63;16.40;;;6.50;99.90;;;;;;5057665;28;20839;-69
2023/01/09 07:52:20;;;;;;;22.93;15.03;;;6.50;99.90;;;;;;5057667;28;20459;-69
2023/01/09 07:54:47;;;;;;;27.00;16.83;;;6.50;99.90;;;;;;5057724;28;20470;-69
2023/01/09 07:57:14;;;;;;;22.33;16.30;;;6.50;99.90;;;;;;5057404;28;20459;-69
2023/01/09 07:59:40;;;;;;;21.43;15.80;;;6.50;99.90;;;;;;5056337;28;21152;-69
2023/01/09 08:02:08;;;;;;;27.90;16.17;;;6.50;99.90;;;;;;5056238;28;20481;-70
2023/01/09 08:04:35;;;;;;;24.17;15.57;;;6.60;99.90;;;;;;5056329;28;20518;-69
2023/01/09 08:07:03;;;;;;;21.10;15.90;;;6.60;99.90;;;;;;5056523;28;20789;-69
2023/01/09 08:09:31;;;;;;;27.27;16.07;;;6.60;99.90;;;;;;5056505;28;20466;-70
2023/01/09 08:11:58;;;;;;;22.50;16.57;;;6.60;99.90;;;;;;5056257;28;20550;-69
2023/01/09 08:14:24;;;;;;;27.30;16.70;;;6.70;99.90;;;;;;5057106;28;20459;-68
2023/01/09 08:16:51;;;;;;;22.70;15.50;;;6.70;99.90;;;;;;5057645;28;20529;-68
2023/01/09 08:19:18;;;;;;;24.90;16.03;;;6.70;99.90;;;;;;5057510;28;20470;-68
2023/01/09 08:21:45;;;;;;;22.17;15.23;;;6.70;99.90;;;;;;5056517;28;20579;-68
2023/01/09 08:24:12;;;;;;;21.83;15.97;;;6.70;99.90;;;;;;5056385;28;20450;-68
2023/01/09 08:26:40;;;;;;;21.77;15.30;;;6.70;99.90;;;;;;5055923;28;20846;-68
2023/01/09 08:29:07;;;;;;;23.40;15.57;;;6.80;99.90;;;;;;5055847;28;20547;-68
2023/01/09 08:31:34;;;;;;;22.80;17.17;;;6.70;99.90;;;;;;5056134;28;20936;-69
2023/01/09 08:34:01;;;;;;;23.53;17.53;;;6.80;99.90;;;;;;5056092;28;20469;-68
2023/01/09 08:36:27;;;;;;;26.63;16.57;;;6.80;99.90;;;;;;5055883;28;20451;-69
2023/01/09 08:38:54;;;;;;;24.57;16.43;;;6.80;99.90;;;;;;5056058;28;20483;-68
2023/01/09 08:47:06;;;;;;;22.93;15.60;;;6.90;99.90;;;;;;5055758;28;20910;-67
2023/01/09 08:49:33;;;;;;;23.60;16.70;;;6.90;99.90;;;;;;5055613;28;20443;-70
2023/01/09 08:52:00;;;;;;;23.47;15.90;;;6.90;99.90;;;;;;5056104;28;20926;-68
2023/01/09 08:54:26;;;;;;;25.57;16.37;;;6.90;99.90;;;;;;5055649;28;20749;-68
2023/01/09 08:56:53;;;;;;;24.10;16.13;;;6.90;99.90;;;;;;5055629;28;20903;-69
2023/01/09 08:59:22;;;;;;;23.33;16.10;;;6.90;99.90;;;;;;5055816;28;20459;-68
2023/01/09 09:01:49;;;;;;;22.63;16.53;;;6.80;99.90;;;;;;5056413;28;20454;-70
2023/01/09 09:04:15;;;;;;;25.57;16.60;;;6.80;99.90;;;;;;5058129;28;20455;-69
2023/01/09 09:06:42;;;;;;;20.93;16.03;;;6.90;99.90;;;;;;5059632;28;20553;-69
2023/01/09 09:09:10;;;;;;;24.90;16.10;;;6.90;99.90;;;;;;5060580;28;20455;-69
2023/01/09 09:11:37;;;;;;;23.27;15.53;;;6.90;99.90;;;;;;5061701;28;20613;-68
2023/01/09 09:15:11;;;;;;;22.57;15.63;;;6.90;99.90;;;;;;5061483;28;20516;-68
2023/01/09 09:16:52;;;;;;;26.43;16.10;;;6.90;99.90;;;;;;5061107;28;20442;-68
2023/01/09 09:19:19;;;;;;;21.27;14.73;;;6.80;99.90;;;;;;5060779;28;20485;-67
2023/01/09 09:21:46;;;;;;;23.33;17.00;;;6.90;99.90;;;;;;5060152;28;20518;-69
2023/01/09 09:24:13;;;;;;;24.63;16.47;;;6.90;99.90;;;;;;5059426;28;20482;-69
2023/01/09 09:26:40;;;;;;;21.73;15.20;;;6.90;99.90;;;;;;5059390;28;20557;-70
2023/01/09 09:29:07;;;;;;;23.90;16.70;;;6.90;99.90;;;;;;5060066;28;20489;-68
2023/01/09 09:31:35;;;;;;;22.23;16.20;;;6.90;99.90;;;;;;5060035;28;20455;-69
2023/01/09 09:34:04;;;;;;;21.60;15.17;;;7.00;99.90;;;;;;5059761;28;20500;-68
2023/01/09 09:36:31;;;;;;;22.77;15.30;;;7.00;99.90;;;;;;5061047;28;20461;-69
2023/01/09 09:38:58;;;;;;;19.43;14.40;;;7.00;99.90;;;;;;5060881;28;20458;-69
2023/01/09 09:44:52;;;;;;;20.20;14.23;;;7.00;99.90;;;;;;5059393;28;20423;-68
2023/01/09 09:47:36;;;;;;;24.50;15.50;;;7.10;99.90;;;;;;5059153;28;20535;-69
2023/01/09 09:50:16;;;;;;;17.60;14.00;;;7.10;99.90;;;;;;5059690;28;20536;-69
2023/01/09 09:52:49;;;;;;;18.70;13.50;;;7.20;99.90;;;;;;5060434;28;20471;-68
2023/01/09 09:55:18;;;;;;;21.00;14.00;;;7.20;99.90;;;;;;5061181;28;20506;-69
2023/01/09 09:57:47;;;;;;;19.60;13.70;;;7.20;99.90;;;;;;5060073;28;20455;-70
2023/01/09 10:00:18;;;;;;;20.80;14.50;;;7.30;99.90;;;;;;5059190;28;20557;-69
2023/01/09 10:02:51;;;;;;;19.50;13.80;;;7.40;99.90;;;;;;5059547;28;20439;-69
2023/01/09 10:05:25;;;;;;;16.57;12.27;;;7.50;99.90;;;;;;5059339;28;20443;-69
2023/01/09 10:07:53;;;;;;;17.23;13.33;;;7.50;99.90;;;;;;5058770;28;20449;-69
2023/01/09 10:10:29;;;;;;;15.57;11.70;;;7.60;99.90;;;;;;5058227;28;20447;-69
2023/01/09 10:12:58;;;;;;;16.20;12.67;;;7.60;99.90;;;;;;5058815;28;20606;-69
2023/01/09 10:15:33;;;;;;;19.17;13.63;;;7.60;99.90;;;;;;5060009;28;20618;-69
2023/01/09 10:18:12;;;;;;;22.00;11.63;;;7.70;99.90;;;;;;5062339;28;20513;-69
2023/01/09 10:20:50;;;;;;;15.87;11.97;;;7.70;99.90;;;;;;5059574;28;20852;-68
2023/01/09 10:23:36;;;;;;;16.70;10.57;;;7.80;99.90;;;;;;5058713;28;20493;-68
2023/01/09 10:26:09;;;;;;;16.03;11.30;;;7.80;99.90;;;;;;5047998;28;20923;-69
2023/01/09 10:29:23;;;;;;;13.80;10.60;;;7.90;99.90;;;;;;5058316;28;20526;-70
2023/01/09 10:32:03;;;;;;;14.80;10.37;;;7.90;99.90;;;;;;4996690;28;20509;-69
2023/01/09 10:34:46;;;;;;;13.20;10.20;;;7.90;99.90;;;;;;4997420;28;20529;-69
2023/01/09 10:37:18;;;;;;;12.83;9.30;;;8.00;99.90;;;;;;5036796;28;20466;-69
2023/01/09 10:39:52;;;;;;;16.73;10.50;;;8.00;99.90;;;;;;5058739;28;20439;-69
2023/01/09 10:42:22;;;;;;;13.63;10.50;;;8.00;99.90;;;;;;5058622;28;20906;-69
2023/01/09 10:44:55;;;;;;;12.40;9.77;;;8.00;99.90;;;;;;5059115;28;20461;-69
2023/01/09 10:47:27;;;;;;;11.00;9.00;;;8.00;99.90;;;;;;5059279;28;20784;-69
2023/01/09 10:49:55;;;;;;;11.50;9.10;;;8.00;99.90;;;;;;5059251;28;20526;-69
2023/01/09 10:52:33;;;;;;;11.80;8.90;;;8.10;99.90;;;;;;5058689;28;20794;-68
2023/01/09 10:55:05;;;;;;;11.93;9.07;;;8.10;99.90;;;;;;5058501;28;20485;-69
2023/01/09 10:57:41;;;;;;;12.80;8.77;;;8.10;99.90;;;;;;5058268;28;20450;-68
2023/01/09 11:00:17;;;;;;;12.13;8.73;;;8.20;99.90;;;;;;5057266;28;20530;-69
2023/01/09 11:02:44;;;;;;;11.67;8.70;;;8.20;99.90;;;;;;5058062;28;20451;-70
2023/01/09 11:05:15;;;;;;;11.93;8.97;;;8.20;99.90;;;;;;5057524;28;20790;-69
2023/01/09 11:07:46;;;;;;;11.77;8.63;;;8.20;99.90;;;;;;5057918;28;20504;-68
2023/01/09 11:10:14;;;;;;;11.27;9.10;;;8.20;99.90;;;;;;5057549;28;20447;-69
2023/01/09 11:12:42;;;;;;;11.10;8.50;;;8.30;99.90;;;;;;5058883;28;20455;-68
2023/01/09 11:15:28;;;;;;;12.00;9.00;;;8.30;99.90;;;;;;5059516;28;20459;-69
2023/01/09 11:18:17;;;;;;;10.37;8.20;;;8.40;99.90;;;;;;5058428;28;20470;-68
2023/01/09 11:20:44;;;;;;;9.07;7.97;;;8.40;99.90;;;;;;5057335;28;20478;-69
2023/01/09 11:23:28;;;;;;;9.10;7.50;;;8.40;99.90;;;;;;5057058;28;20487;-68
2023/01/09 11:25:58;;;;;;;8.63;7.77;;;8.40;99.90;;;;;;5057034;28;20912;-70
2023/01/09 11:28:25;;;;;;;13.30;7.40;;;8.40;99.90;;;;;;5057131;28;20814;-70
2023/01/09 11:30:55;;;;;;;12.87;9.17;;;8.40;99.90;;;;;;5056972;28;20474;-69
2023/01/09 11:33:24;;;;;;;10.50;7.70;;;8.50;99.90;;;;;;5057644;28;20563;-69
2023/01/09 11:35:57;;;;;;;8.70;6.30;;;8.40;99.90;;;;;;5056965;28;20916;-70
2023/01/09 11:38:26;;;;;;;9.47;8.00;;;8.40;99.90;;;;;;5056744;28;20489;-68
2023/01/09 11:40:56;;;;;;;9.23;7.10;;;8.40;99.90;;;;;;5056621;28;20497;-69
2023/01/09 11:43:32;;;;;;;7.63;6.43;;;8.40;99.90;;;;;;5056695;28;20555;-68
2023/01/09 11:46:01;;;;;;;6.53;5.80;;;8.30;99.90;;;;;;5056645;28;20508;-68
2023/01/09 11:48:38;;;;;;;7.97;7.17;;;8.30;99.90;;;;;;5056476;28;20455;-69
2023/01/09 11:51:16;;;;;;;8.90;5.33;;;8.40;99.90;;;;;;5057309;28;20445;-69
2023/01/09 11:53:59;;;;;;;6.67;5.53;;;8.40;99.90;;;;;;5056890;28;20454;-69
2023/01/09 11:56:26;;;;;;;6.50;5.50;;;8.40;99.90;;;;;;5057458;28;20554;-69
2023/01/09 11:58:53;;;;;;;9.37;5.20;;;8.40;99.90;;;;;;5056999;28;20469;-69
2023/01/09 12:01:44;;;;;;;7.50;5.10;;;8.40;99.90;;;;;;5057349;28;20541;-69
2023/01/09 12:04:28;;;;;;;8.97;5.60;;;8.40;99.90;;;;;;5046638;28;20554;-69
2023/01/09 12:07:16;;;;;;;5.73;4.67;;;8.40;99.90;;;;;;5056589;28;20454;-69
2023/01/09 12:09:48;;;;;;;10.33;5.40;;;8.40;99.90;;;;;;5056427;28;20443;-69
2023/01/09 12:12:28;;;;;;;6.33;4.60;;;8.50;99.90;;;;;;5056451;28;20511;-68
2023/01/09 12:15:05;;;;;;;6.43;4.77;;;8.60;99.90;;;;;;5056962;28;20443;-68
2023/01/09 12:18:14;;;;;;;5.30;4.20;;;9.00;99.90;;;;;;5056130;28;20448;-69
2023/01/09 12:20:53;;;;;;;6.40;4.80;;;9.60;99.90;;;;;;5053672;28;20505;-68
2023/01/09 12:23:29;;;;;;;5.70;3.90;;;9.90;99.90;;;;;;5055780;28;20478;-68
2023/01/09 12:26:12;;;;;;;6.10;4.70;;;9.90;99.90;;;;;;5055841;28;20521;-68
2023/01/09 12:29:17;;;;;;;9.77;3.53;;;10.20;99.90;;;;;;5056755;28;20768;-68
2023/01/09 12:32:20;;;;;;;4.83;3.13;;;10.60;99.90;;;;;;5055054;28;20453;-69
2023/01/09 12:35:02;;;;;;;6.07;2.97;;;10.60;99.90;;;;;;5034859;28;20466;-68
2023/01/09 12:37:51;;;;;;;3.10;2.30;;;10.10;99.90;;;;;;5056298;28;20530;-70
2023/01/09 12:40:33;;;;;;;6.60;3.60;;;9.80;99.90;;;;;;5057572;28;20526;-69
2023/01/09 12:43:12;;;;;;;5.50;2.77;;;9.70;99.90;;;;;;5056473;28;20435;-69
2023/01/09 12:45:54;;;;;;;4.17;2.93;;;10.40;99.90;;;;;;5056055;28;20461;-68
2023/01/09 12:48:35;;;;;;;4.87;3.20;;;10.80;99.90;;;;;;5056341;28;20530;-69
2023/01/09 12:51:17;;;;;;;3.90;2.77;;;10.80;99.90;;;;;;5056076;28;20780;-68
2023/01/09 12:53:51;;;;;;;3.93;2.83;;;10.60;99.90;;;;;;5057021;28;20526;-68
2023/01/09 12:56:22;;;;;;;4.87;3.07;;;10.30;99.90;;;;;;5056413;28;20813;-69
2023/01/09 12:58:54;;;;;;;4.10;2.60;;;10.00;99.90;;;;;;5055812;28;20439;-68
2023/01/09 13:01:24;;;;;;;6.80;2.90;;;9.70;99.90;;;;;;5056310;28;20555;-69
2023/01/09 13:03:57;;;;;;;7.00;3.03;;;9.50;99.90;;;;;;5055645;28;20562;-67
2023/01/09 13:06:25;;;;;;;4.30;3.20;;;9.70;99.90;;;;;;5055715;28;20538;-68
2023/01/09 13:09:00;;;;;;;4.40;2.73;;;10.50;99.90;;;;;;5055471;28;20469;-69
2023/01/09 13:11:34;;;;;;;8.63;3.17;;;11.50;99.90;;;;;;5055918;28;20526;-69